Time;durP1;ratioP1;P1;durP2;ratioP2;P2;SDS_P1;SDS_P2;PMS_P1;PMS_P2;Temp;Humidity;BMP_temperature;BMP_pressure;BME280_temperature;BME280_humidity;BME280_pressure;Samples;Min_cycle;Max_cycle;Signal;HPM_P1;HPM_P2
2021/11/17 02:27:51;;;;;;;48.05;19.58;;;5.70;79.50;;;4.89;64.98;95132.16;4953282;28;20246;-89
2021/11/17 02:30:49;;;;;;;53.80;21.25;;;5.70;79.60;;;4.89;65.04;95124.34;4942632;28;20231;-89
2021/11/17 02:33:38;;;;;;;55.03;21.92;;;5.70;79.60;;;4.89;65.19;95122.56;4957365;28;20678;-89
2021/11/17 02:36:33;;;;;;;50.85;21.30;;;5.70;79.30;;;4.92;65.22;95119.69;4941614;28;20196;-89
2021/11/17 02:39:42;;;;;;;53.63;21.38;;;5.70;79.70;;;4.93;65.20;95113.50;4957195;28;20215;-89
2021/11/17 02:42:58;;;;;;;54.65;21.63;;;5.80;79.80;;;4.90;65.00;95105.19;4896113;29;20198;-89
2021/11/17 02:45:49;;;;;;;51.17;21.40;;;5.80;79.70;;;4.93;65.05;95100.53;4937321;28;20317;-89
2021/11/17 02:49:00;;;;;;;46.58;21.67;;;5.80;79.60;;;4.92;65.08;95101.47;4914261;28;20198;-88
2021/11/17 02:51:49;;;;;;;68.75;21.80;;;5.80;79.60;;;4.96;64.93;95102.00;4944979;28;20210;-89
2021/11/17 02:54:38;;;;;;;45.58;21.48;;;5.80;79.60;;;4.96;65.24;95102.78;4945042;28;20250;-89
2021/11/17 02:57:15;;;;;;;49.22;20.63;;;5.80;79.40;;;4.93;64.99;95097.09;4930319;28;20265;-89
2021/11/17 03:00:26;;;;;;;40.70;20.15;;;5.70;79.10;;;4.99;65.15;95106.06;4945328;28;20261;-90
2021/11/17 03:03:38;;;;;;;42.58;19.25;;;5.80;79.70;;;4.97;65.24;95093.22;4944649;28;20218;-89
2021/11/17 03:06:11;;;;;;;38.25;20.08;;;5.80;79.40;;;5.02;65.11;95097.97;4944469;28;20287;-89
2021/11/17 03:08:54;;;;;;;48.53;20.30;;;5.80;79.40;;;5.02;65.30;95097.97;4960764;28;20211;-89
2021/11/17 03:11:31;;;;;;;46.88;19.98;;;5.80;79.40;;;4.97;65.07;95094.03;4960754;28;20198;-90
2021/11/17 03:14:22;;;;;;;47.30;18.48;;;5.80;79.10;;;5.01;65.19;95096.34;4959501;28;20210;-89
2021/11/17 03:17:24;;;;;;;42.75;16.15;;;5.80;79.20;;;4.99;64.94;95099.06;4960494;28;20199;-89
2021/11/17 03:20:42;;;;;;;46.10;17.40;;;5.90;79.50;;;4.98;65.28;95094.88;4961055;28;20218;-89
2021/11/17 03:23:15;;;;;;;38.28;16.23;;;5.80;79.40;;;4.96;65.17;95092.41;4931382;28;20195;-89
2021/11/17 03:26:12;;;;;;;45.97;18.27;;;5.80;79.00;;;4.96;65.01;95095.00;4959351;28;20218;-89
2021/11/17 03:29:13;;;;;;;53.65;17.05;;;5.80;79.20;;;4.95;65.13;95110.75;4947775;28;20222;-90
2021/11/17 03:31:59;;;;;;;44.13;17.88;;;5.80;79.30;;;4.95;65.37;95101.16;4945469;28;20186;-89
2021/11/17 03:35:17;;;;;;;65.95;19.08;;;5.80;79.00;;;4.92;65.08;95111.88;4956542;28;20755;-89
2021/11/17 03:38:27;;;;;;;75.07;18.70;;;5.80;79.20;;;4.87;65.07;95115.88;4976480;28;20184;-89
2021/11/17 03:41:26;;;;;;;61.90;19.50;;;5.80;79.20;;;4.84;65.24;95114.41;4959527;28;20198;-88
2021/11/17 03:44:41;;;;;;;52.83;18.38;;;5.80;79.00;;;4.78;65.25;95115.81;4954870;28;20222;-89
2021/11/17 03:47:27;;;;;;;46.47;18.77;;;5.70;79.20;;;4.80;65.59;95124.28;4943366;28;20218;-89
2021/11/17 03:50:25;;;;;;;44.70;17.90;;;5.80;79.10;;;4.76;64.97;95107.38;4943780;28;20727;-89
2021/11/17 03:53:20;;;;;;;46.20;17.83;;;5.70;79.10;;;4.82;65.20;95118.94;4940367;28;20190;-88
2021/11/17 03:56:17;;;;;;;46.15;18.52;;;5.70;79.30;;;4.80;65.48;95113.91;4961851;28;20201;-88
2021/11/17 03:59:27;;;;;;;39.53;18.77;;;5.70;79.40;;;4.83;65.41;95119.78;4942636;28;20254;-88
2021/11/17 04:02:20;;;;;;;44.55;18.65;;;5.70;79.40;;;4.85;65.39;95113.44;4911038;28;20202;-88
2021/11/17 04:05:10;;;;;;;50.35;19.38;;;5.70;79.20;;;4.88;65.28;95115.75;4929919;28;20685;-88
2021/11/17 04:07:40;;;;;;;59.47;19.55;;;5.70;79.20;;;4.90;65.27;95120.78;4939972;28;20218;-88
2021/11/17 04:10:26;;;;;;;46.55;18.63;;;5.70;79.20;;;4.90;65.29;95126.00;4952777;28;20211;-89
2021/11/17 04:13:08;;;;;;;46.85;17.65;;;5.70;79.60;;;4.91;65.13;95120.63;4972163;28;20206;-88
2021/11/17 04:15:56;;;;;;;39.78;18.90;;;5.70;79.40;;;4.92;65.06;95118.84;4956969;28;20456;-89
2021/11/17 04:18:41;;;;;;;43.03;19.20;;;5.70;79.50;;;4.90;65.42;95113.81;4957494;28;20222;-89
2021/11/17 04:21:43;;;;;;;40.88;18.40;;;5.70;79.20;;;4.93;65.48;95121.31;4940955;28;20697;-89
2021/11/17 04:24:48;;;;;;;35.80;18.98;;;5.70;80.40;;;4.88;65.43;95107.97;4956571;28;20241;-89
2021/11/17 04:27:37;;;;;;;33.67;17.90;;;5.80;79.40;;;4.93;65.59;95116.13;4935668;28;20246;-87
2021/11/17 04:30:19;;;;;;;39.97;18.00;;;5.80;79.50;;;5.02;65.26;95122.19;4942156;28;20281;-89
2021/11/17 04:33:29;;;;;;;31.98;17.45;;;5.80;79.50;;;5.02;65.29;95122.19;4958098;28;20250;-89
2021/11/17 04:36:19;;;;;;;40.90;17.85;;;5.80;79.80;;;4.99;65.47;95113.88;4955886;28;20206;-88
2021/11/17 04:39:27;;;;;;;33.88;17.95;;;5.80;79.40;;;5.05;65.33;95121.06;4950528;28;20238;-87
2021/11/17 04:42:34;;;;;;;39.88;19.33;;;5.80;79.50;;;5.05;65.29;95124.47;4969578;28;20202;-88
2021/11/17 04:45:22;;;;;;;45.20;19.75;;;5.90;79.80;;;5.02;65.42;95119.59;4942752;28;20246;-89
2021/11/17 04:47:55;;;;;;;44.58;18.90;;;5.90;79.50;;;5.07;65.49;95121.72;4957098;28;20203;-88
2021/11/17 04:50:45;;;;;;;81.13;21.58;;;5.90;79.60;;;5.09;65.34;95127.56;4957700;28;20787;-87
2021/11/17 04:53:40;;;;;;;46.10;19.70;;;5.80;79.60;;;5.10;65.26;95127.44;4938289;28;20647;-86
2021/11/17 04:56:32;;;;;;;46.42;20.13;;;5.90;79.70;;;5.10;65.29;95121.41;4973148;28;20188;-86
2021/11/17 04:59:21;;;;;;;45.78;20.90;;;5.90;79.50;;;5.11;65.24;95123.03;4939657;28;20681;-87
2021/11/17 05:02:12;;;;;;;47.40;19.92;;;5.90;79.80;;;5.13;65.22;95118.53;4954364;28;20222;-87
2021/11/17 05:05:08;;;;;;;41.20;19.65;;;5.90;79.80;;;5.12;65.53;95119.47;4937860;28;20246;-87
2021/11/17 05:08:02;;;;;;;47.35;18.85;;;5.90;79.70;;;5.16;65.32;95120.78;4940925;28;20306;-88
2021/11/17 05:10:46;;;;;;;54.17;18.25;;;5.90;79.60;;;5.19;65.29;95119.66;4955137;28;20732;-88
2021/11/17 05:13:52;;;;;;;49.42;20.48;;;5.90;79.80;;;5.19;65.32;95111.88;4956433;28;20593;-87
2021/11/17 05:16:38;;;;;;;47.72;20.02;;;6.00;80.00;;;5.18;65.31;95116.28;4940906;28;20187;-86
2021/11/17 05:19:42;;;;;;;55.30;20.95;;;6.00;79.70;;;5.19;65.45;95111.88;4941440;28;20261;-88
2021/11/17 05:22:35;;;;;;;39.80;18.45;;;6.00;79.90;;;5.17;65.48;95113.81;4956698;28;20652;-87
2021/11/17 05:25:33;;;;;;;39.53;18.90;;;6.00;79.90;;;5.13;65.26;95121.91;4942092;28;20214;-86
2021/11/17 05:28:38;;;;;;;53.45;19.77;;;6.00;79.90;;;5.21;65.44;95134.19;4959672;28;20214;-86
2021/11/17 05:31:36;;;;;;;60.25;21.83;;;6.00;79.80;;;5.19;65.26;95127.47;4951228;28;20206;-88
2021/11/17 05:34:49;;;;;;;46.22;21.75;;;6.00;80.00;;;5.12;65.43;95115.09;4942880;28;20277;-88
2021/11/17 05:38:20;;;;;;;52.90;19.45;;;6.00;79.80;;;5.20;65.23;95129.09;4943605;28;20293;-88
2021/11/17 05:40:59;;;;;;;39.80;18.98;;;6.00;79.90;;;5.21;65.48;95135.94;4921493;29;20610;-88
2021/11/17 05:43:44;;;;;;;45.58;20.40;;;6.00;79.70;;;5.23;65.56;95131.41;4956360;28;20219;-88
2021/11/17 05:46:42;;;;;;;44.75;19.02;;;6.00;79.60;;;5.24;65.53;95138.25;4954569;29;20200;-89
2021/11/17 05:49:21;;;;;;;37.92;18.83;;;6.00;79.90;;;5.27;65.55;95145.72;4954452;28;20334;-88
2021/11/17 05:52:30;;;;;;;36.05;18.02;;;6.10;79.70;;;5.28;65.45;95144.78;4955439;28;20235;-88
2021/11/17 05:55:38;;;;;;;37.03;18.90;;;6.10;80.10;;;5.31;65.41;95147.06;4929960;28;20222;-89
2021/11/17 05:58:49;;;;;;;36.53;18.67;;;6.10;79.70;;;5.28;65.34;95140.41;4941480;28;20242;-88
2021/11/17 06:01:45;;;;;;;35.33;18.15;;;6.10;80.10;;;5.32;65.63;95151.28;4914229;28;20790;-88
2021/11/17 06:04:12;;;;;;;38.60;18.90;;;6.10;80.10;;;5.39;65.81;95156.72;4957261;28;20218;-88
2021/11/17 06:06:39;;;;;;;37.80;19.17;;;6.10;79.70;;;5.42;65.77;95153.78;4956963;28;20219;-89
2021/11/17 06:09:06;;;;;;;37.38;19.33;;;6.10;79.80;;;5.44;65.66;95157.88;4957802;28;20215;-88
2021/11/17 06:12:11;;;;;;;43.97;20.48;;;6.20;79.90;;;5.46;65.72;95152.53;4957363;28;20245;-85
2021/11/17 06:14:44;;;;;;;42.30;19.65;;;6.20;80.20;;;5.49;65.69;95152.19;4957883;28;20206;-88
2021/11/17 06:17:18;;;;;;;44.90;20.48;;;6.20;79.90;;;5.50;65.56;95151.22;4926027;28;20262;-87
2021/11/17 06:19:49;;;;;;;45.95;20.15;;;6.20;80.00;;;5.53;65.54;95153.53;4944488;28;20320;-88
2021/11/17 06:22:20;;;;;;;45.33;21.65;;;6.30;79.90;;;5.56;65.49;95160.22;4945296;28;20221;-88
2021/11/17 06:24:50;;;;;;;39.50;20.52;;;6.30;79.90;;;5.59;65.64;95159.91;4961734;28;20214;-87
2021/11/17 06:27:22;;;;;;;41.38;20.13;;;6.30;80.00;;;5.57;65.51;95156.66;4945250;28;20669;-87
2021/11/17 06:29:54;;;;;;;35.90;18.60;;;6.30;80.00;;;5.61;65.58;95155.34;4945567;28;20684;-88
2021/11/17 06:32:21;;;;;;;41.58;21.42;;;6.40;79.90;;;5.60;65.49;95156.31;4945171;28;20237;-88
2021/11/17 06:34:58;;;;;;;45.20;20.75;;;6.40;80.00;;;5.68;65.75;95160.78;4961101;28;20305;-87
2021/11/17 06:37:28;;;;;;;42.33;22.38;;;6.40;80.00;;;5.69;65.57;95167.59;4945409;28;20179;-88
2021/11/17 06:39:59;;;;;;;40.58;19.35;;;6.40;79.90;;;5.68;65.54;95173.78;4945146;28;20309;-87
2021/11/17 06:42:40;;;;;;;39.50;20.42;;;6.40;79.80;;;5.71;65.58;95176.06;4929248;28;20229;-87
2021/11/17 06:45:14;;;;;;;42.97;20.77;;;6.50;79.90;;;5.69;65.75;95173.63;4960748;28;20226;-87
2021/11/17 06:47:42;;;;;;;44.63;22.52;;;6.50;79.90;;;5.65;65.98;95168.88;4944810;28;20227;-87
2021/11/17 06:50:11;;;;;;;39.30;20.67;;;6.60;79.90;;;5.69;65.70;95173.63;4928167;28;20258;-87
2021/11/17 06:52:38;;;;;;;42.55;20.85;;;6.50;79.80;;;5.69;65.57;95178.00;4959691;28;20206;-87
2021/11/17 06:55:09;;;;;;;40.95;20.23;;;6.50;79.80;;;5.67;65.71;95172.94;4943842;28;20218;-88
2021/11/17 06:57:37;;;;;;;44.55;21.73;;;6.50;79.90;;;5.73;65.84;95181.94;4943967;28;20210;-88
2021/11/17 07:00:11;;;;;;;41.15;20.50;;;6.50;79.90;;;5.75;65.76;95183.41;4943630;28;20249;-87
2021/11/17 07:02:39;;;;;;;42.05;20.55;;;6.50;80.00;;;5.76;65.69;95182.44;4959782;28;20194;-87
2021/11/17 07:05:08;;;;;;;37.60;19.60;;;6.50;80.00;;;5.80;65.91;95188.16;4943758;28;20673;-87
2021/11/17 07:07:36;;;;;;;36.17;19.73;;;6.50;80.00;;;5.81;65.83;95181.16;4943478;28;20285;-87
2021/11/17 07:10:10;;;;;;;39.45;20.95;;;6.50;80.00;;;5.85;65.92;95188.50;4927839;28;20248;-87
2021/11/17 07:12:39;;;;;;;37.60;20.92;;;6.60;80.10;;;5.85;65.83;95190.31;4943457;28;20206;-87
2021/11/17 07:15:09;;;;;;;39.13;21.13;;;6.60;79.90;;;5.76;65.74;95182.44;4943502;28;20254;-87
2021/11/17 07:17:37;;;;;;;36.72;19.85;;;6.60;79.80;;;5.78;65.90;95182.28;4943490;28;20246;-88
2021/11/17 07:20:06;;;;;;;38.85;20.20;;;6.60;79.80;;;5.82;65.61;95188.81;4943515;28;20226;-87
2021/11/17 07:22:34;;;;;;;31.00;18.55;;;6.60;79.80;;;5.84;65.87;95188.66;4943646;28;20198;-87
2021/11/17 07:25:02;;;;;;;33.35;18.48;;;6.60;79.90;;;5.86;65.88;95197.94;4943228;28;20253;-87
2021/11/17 07:27:30;;;;;;;35.95;20.73;;;6.60;79.90;;;5.86;66.14;95195.34;4927337;28;20230;-87
2021/11/17 07:29:57;;;;;;;38.08;20.88;;;6.60;79.90;;;5.89;65.88;95191.63;4942841;28;20215;-88
2021/11/17 07:32:26;;;;;;;35.35;20.17;;;6.60;79.90;;;5.86;65.77;95192.75;4927678;28;20203;-87
2021/11/17 07:34:54;;;;;;;33.72;19.50;;;6.60;80.00;;;5.90;66.04;95191.44;4943489;28;20273;-87
2021/11/17 07:37:21;;;;;;;31.55;18.75;;;6.60;79.90;;;5.93;65.86;95193.75;4942988;28;20203;-87
2021/11/17 07:39:48;;;;;;;35.47;20.00;;;6.60;79.90;;;5.95;65.91;95201.41;4943290;28;20313;-87
2021/11/17 07:42:16;;;;;;;36.65;20.45;;;6.70;79.90;;;5.96;65.91;95208.25;4943132;28;20211;-87
2021/11/17 07:44:43;;;;;;;32.38;18.67;;;6.70;79.90;;;5.97;65.71;95212.47;4942719;28;20211;-87
2021/11/17 07:47:11;;;;;;;35.72;18.55;;;6.70;79.90;;;5.99;65.87;95205.34;4958812;28;20218;-87
2021/11/17 07:49:38;;;;;;;34.78;19.65;;;6.70;80.00;;;6.00;65.83;95211.38;4901463;28;1196753;-88
2021/11/17 07:52:06;;;;;;;32.97;19.10;;;6.70;80.00;;;6.01;65.82;95216.44;4942900;28;20672;-85
2021/11/17 07:54:33;;;;;;;34.58;20.15;;;6.70;80.00;;;6.02;66.10;95209.44;4943520;28;20687;-88
2021/11/17 07:57:03;;;;;;;32.47;19.25;;;6.70;80.00;;;6.04;65.99;95217.91;4924655;29;20208;-88
2021/11/17 07:59:31;;;;;;;38.92;21.33;;;6.80;80.00;;;6.03;65.78;95218.88;4940370;29;20251;-89
2021/11/17 08:02:10;;;;;;;33.35;18.58;;;6.80;80.00;;;5.98;65.91;95208.09;4928084;28;20195;-88
2021/11/17 08:04:38;;;;;;;30.45;18.08;;;6.80;80.00;;;6.02;66.14;95218.06;4943348;28;20246;-88
2021/11/17 08:07:13;;;;;;;34.38;20.35;;;6.80;80.00;;;6.04;66.05;95226.53;4943131;28;20759;-89
2021/11/17 08:09:45;;;;;;;30.55;18.33;;;6.80;80.00;;;6.09;65.93;95233.88;4944032;28;20226;-88
2021/11/17 08:12:13;;;;;;;34.55;19.50;;;6.80;80.00;;;6.09;65.79;95236.47;4952495;28;20211;-88
2021/11/17 08:14:40;;;;;;;32.63;20.17;;;6.80;79.90;;;6.07;66.09;95241.84;4959704;28;20225;-89
2021/11/17 08:17:07;;;;;;;33.13;18.02;;;6.80;79.80;;;6.09;66.11;95237.31;4951798;28;20620;-88
2021/11/17 08:19:34;;;;;;;31.75;18.58;;;6.80;79.90;;;6.07;65.98;95233.22;4943569;28;20311;-88
2021/11/17 08:22:06;;;;;;;30.75;17.73;;;6.80;79.90;;;6.13;66.00;95239.59;4943648;28;20201;-88
2021/11/17 08:24:37;;;;;;;29.08;18.30;;;6.90;80.00;;;6.08;66.04;95233.06;4944185;28;20211;-88
2021/11/17 08:27:18;;;;;;;32.95;18.83;;;6.80;80.00;;;6.16;65.87;95236.69;4959072;28;20226;-88
2021/11/17 08:29:51;;;;;;;27.92;17.27;;;6.90;80.10;;;6.18;66.05;95242.56;4943351;28;20308;-88
2021/11/17 08:32:20;;;;;;;32.80;18.25;;;6.90;80.10;;;6.20;66.07;95243.19;4942286;28;20214;-88
2021/11/17 08:34:49;;;;;;;29.92;18.40;;;6.90;80.10;;;6.18;66.29;95232.94;4942731;28;20210;-88
2021/11/17 08:37:17;;;;;;;27.30;16.65;;;6.90;80.10;;;6.28;66.10;95238.03;4943432;28;20241;-88
2021/11/17 08:39:47;;;;;;;30.17;17.38;;;7.00;80.10;;;6.29;65.89;95241.47;4951894;28;20759;-88
2021/11/17 08:42:17;;;;;;;31.15;18.60;;;7.00;80.10;;;6.31;66.28;95237.72;4957167;28;20198;-88
2021/11/17 08:44:44;;;;;;;30.48;17.98;;;7.00;80.10;;;6.30;65.84;95235.25;4942948;28;20246;-88
2021/11/17 08:47:16;;;;;;;29.85;16.98;;;7.10;80.10;;;6.32;66.16;95241.13;4926242;28;20202;-88
2021/11/17 08:49:44;;;;;;;33.75;18.20;;;7.00;80.00;;;6.37;66.05;95249.28;4955656;28;20218;-88
2021/11/17 08:52:12;;;;;;;29.73;16.85;;;7.10;80.00;;;6.35;65.93;95244.25;4942582;28;20199;-88
2021/11/17 08:54:41;;;;;;;30.73;17.75;;;7.10;80.00;;;6.37;66.26;95244.91;4940109;28;20230;-89
2021/11/17 08:57:08;;;;;;;31.98;18.33;;;7.10;80.00;;;6.41;65.95;95253.22;4933566;29;20238;-89
2021/11/17 08:59:36;;;;;;;26.80;16.67;;;7.10;80.00;;;6.36;66.18;95245.03;4955124;28;20227;-88
2021/11/17 09:02:05;;;;;;;31.67;18.02;;;7.10;80.00;;;6.45;66.07;95266.75;4955232;28;20732;-88
2021/11/17 09:04:32;;;;;;;30.90;17.27;;;7.10;80.10;;;6.48;66.32;95264.66;4952181;28;20749;-88
2021/11/17 09:07:00;;;;;;;28.98;16.30;;;7.20;80.10;;;6.50;66.09;95267.09;4955385;28;20229;-89
2021/11/17 09:09:27;;;;;;;28.70;17.10;;;7.20;80.10;;;6.48;66.28;95259.44;4954802;29;20234;-88
2021/11/17 09:11:54;;;;;;;29.77;16.63;;;7.20;80.00;;;6.50;65.74;95272.31;4928942;28;20282;-87
2021/11/17 09:14:22;;;;;;;25.27;16.33;;;7.20;80.00;;;6.48;65.97;95269.03;4941333;28;20226;-89
2021/11/17 09:16:51;;;;;;;29.60;16.35;;;7.20;80.00;;;6.53;65.92;95278.03;4939164;29;20199;-89
2021/11/17 09:19:21;;;;;;;26.02;15.55;;;7.20;80.00;;;6.54;66.09;95276.22;4923327;29;20233;-88
2021/11/17 09:21:51;;;;;;;29.45;16.13;;;7.30;80.10;;;6.55;66.00;95283.91;4939678;29;20203;-88
2021/11/17 09:24:20;;;;;;;25.52;15.10;;;7.30;80.00;;;6.55;65.89;95286.50;4971499;28;20223;-88
2021/11/17 09:26:51;;;;;;;26.73;15.18;;;7.30;80.00;;;6.57;65.82;95278.53;4941977;28;20222;-87
2021/11/17 09:29:22;;;;;;;22.98;14.27;;;7.30;80.00;;;6.60;66.23;95283.41;4942195;28;20230;-88
2021/11/17 09:31:50;;;;;;;25.98;15.80;;;7.30;80.00;;;6.60;66.21;95286.00;4942554;28;20206;-88
2021/11/17 09:34:18;;;;;;;25.00;14.75;;;7.30;80.00;;;6.59;66.56;95284.38;4941239;28;20685;-89
2021/11/17 09:36:46;;;;;;;19.85;13.27;;;7.30;79.90;;;6.61;66.32;95292.06;4941911;28;20297;-88
2021/11/17 09:39:15;;;;;;;27.55;15.32;;;7.30;80.00;;;6.62;65.90;95280.66;4942490;28;20744;-89
2021/11/17 09:41:54;;;;;;;24.13;14.98;;;7.30;79.90;;;6.62;65.63;95283.28;4942378;28;20203;-89
2021/11/17 09:44:28;;;;;;;22.65;13.65;;;7.30;79.90;;;6.64;66.24;95287.34;4941292;28;20222;-89
2021/11/17 09:47:01;;;;;;;22.83;13.57;;;7.40;80.00;;;6.65;65.97;95288.16;4967543;28;20194;-88
2021/11/17 09:49:38;;;;;;;24.25;15.15;;;7.40;80.00;;;6.64;65.42;95286.53;4925205;28;20253;-88
2021/11/17 09:52:12;;;;;;;24.30;14.07;;;7.40;79.90;;;6.65;65.94;95282.94;4965112;28;20190;-89
2021/11/17 09:55:17;;;;;;;21.90;14.10;;;7.40;79.80;;;6.59;65.94;95273.16;4941557;28;20281;-86
2021/11/17 09:57:53;;;;;;;20.85;12.98;;;7.40;79.80;;;6.63;65.81;95277.91;4951071;28;20214;-88
2021/11/17 10:00:35;;;;;;;35.03;20.88;;;7.40;79.80;;;6.66;65.86;95282.78;4955678;28;20313;-88
2021/11/17 10:03:16;;;;;;;24.48;15.50;;;7.40;79.80;;;6.66;65.73;95288.00;4957477;28;20207;-89
2021/11/17 10:14:57;;;;;;;17.02;11.52;;;7.40;79.70;;;6.63;65.68;95287.47;4939946;29;20258;-87
2021/11/17 10:17:41;;;;;;;19.27;12.07;;;7.40;79.60;;;6.60;65.60;95286.00;4942686;29;20206;-88
2021/11/17 10:20:14;;;;;;;18.95;12.32;;;7.50;79.70;;;6.56;65.71;95276.88;4954221;28;20739;-86
2021/11/17 10:22:52;;;;;;;16.83;11.40;;;7.40;79.50;;;6.62;65.65;95296.31;4957261;28;20194;-88
2021/11/17 10:25:22;;;;;;;15.05;10.15;;;7.40;79.60;;;6.61;66.04;95303.28;4941322;28;20218;-88
2021/11/17 10:27:58;;;;;;;15.43;10.35;;;7.40;79.60;;;6.63;65.53;95295.31;4941246;28;20226;-88
2021/11/17 10:31:10;;;;;;;16.08;10.90;;;7.40;79.60;;;6.62;65.64;95301.53;4940747;28;20639;-86
2021/11/17 10:34:32;;;;;;;16.15;10.57;;;7.40;79.70;;;6.60;65.83;95293.03;4952836;28;20726;-88
2021/11/17 10:37:32;;;;;;;15.80;10.88;;;7.40;79.60;;;6.59;65.62;95284.38;4940356;28;20657;-87
2021/11/17 10:40:20;;;;;;;17.10;10.82;;;7.40;79.60;;;6.59;65.75;95289.59;4939813;29;20294;-87
2021/11/17 10:43:03;;;;;;;15.07;9.93;;;7.40;79.50;;;6.60;65.96;95300.84;4981648;28;20215;-88
2021/11/17 10:45:45;;;;;;;12.98;9.52;;;7.40;79.60;;;6.61;65.90;95298.06;4952240;29;20207;-88
2021/11/17 10:48:34;;;;;;;15.10;9.20;;;7.40;79.60;;;6.63;65.78;95290.94;4922067;28;20246;-86
2021/11/17 10:51:15;;;;;;;12.82;8.23;;;7.40;79.60;;;6.67;65.50;95291.44;4953023;28;20216;-86
2021/11/17 10:53:53;;;;;;;12.25;8.38;;;7.40;79.70;;;6.68;65.92;95290.47;4940522;28;20288;-88
2021/11/17 10:56:24;;;;;;;14.73;9.80;;;7.40;79.80;;;6.70;65.65;95288.50;4942774;28;20199;-86
2021/11/17 10:58:58;;;;;;;13.18;8.95;;;7.50;79.70;;;6.69;65.65;95292.91;4930968;28;20713;-87
2021/11/17 11:01:34;;;;;;;13.93;8.90;;;7.50;79.70;;;6.71;65.79;95298.78;4949978;28;20195;-88
2021/11/17 11:04:15;;;;;;;11.30;8.65;;;7.50;79.70;;;6.73;65.80;95299.41;4951644;29;20238;-88
2021/11/17 11:06:55;;;;;;;13.07;9.10;;;7.50;79.70;;;6.72;65.64;95295.19;4960311;28;20197;-86
2021/11/17 11:09:51;;;;;;;13.07;8.98;;;7.50;79.70;;;6.72;65.37;95289.16;4943724;28;20241;-87
2021/11/17 11:12:21;;;;;;;13.60;9.15;;;7.50;79.70;;;6.73;65.86;95288.19;4949054;28;20202;-86
2021/11/17 11:15:11;;;;;;;14.20;8.93;;;7.50;79.60;;;6.72;65.48;95284.75;4947566;28;20223;-86
2021/11/17 11:18:06;;;;;;;12.75;9.25;;;7.50;79.60;;;6.71;65.79;95284.91;4959216;28;20206;-86
2021/11/17 11:20:47;;;;;;;12.73;9.38;;;7.60;79.60;;;6.71;65.71;95283.13;4914975;28;20257;-86
2021/11/17 11:23:21;;;;;;;13.48;9.23;;;7.50;79.70;;;6.73;65.71;95291.59;4943737;28;20194;-86
2021/11/17 11:26:06;;;;;;;13.98;10.30;;;7.50;79.70;;;6.74;65.61;95289.81;4976120;28;20261;-87
2021/11/17 11:28:42;;;;;;;15.35;10.60;;;7.50;79.70;;;6.78;65.54;95279.91;4959373;28;20241;-86
2021/11/17 11:31:10;;;;;;;16.23;10.68;;;7.50;79.70;;;6.80;65.70;95291.78;4940363;29;20207;-86
2021/11/17 11:33:48;;;;;;;15.57;10.63;;;7.50;79.70;;;6.83;65.67;95277.63;4971744;28;20322;-86
2021/11/17 11:36:16;;;;;;;16.65;10.85;;;7.60;79.80;;;6.86;65.50;95274.69;4943650;28;20233;-86
2021/11/17 11:38:56;;;;;;;13.95;10.27;;;7.60;79.80;;;6.89;65.42;95272.56;4959611;28;20672;-86
2021/11/17 11:41:41;;;;;;;14.20;10.52;;;7.60;79.70;;;6.87;65.49;95265.88;4959150;28;20258;-86
2021/11/17 11:44:23;;;;;;;15.73;10.05;;;7.60;79.50;;;6.92;65.52;95263.63;4929209;29;20693;-84
2021/11/17 11:47:10;;;;;;;13.38;9.55;;;7.70;79.60;;;6.92;65.38;95268.84;4974158;28;20210;-87
2021/11/17 11:50:00;;;;;;;13.80;10.52;;;7.60;79.60;;;6.94;65.46;95260.88;4951997;28;20229;-86
2021/11/17 11:52:36;;;;;;;14.98;10.68;;;7.70;79.60;;;6.97;65.50;95261.34;4940668;28;20214;-86
2021/11/17 11:55:03;;;;;;;15.43;10.63;;;7.70;80.40;;;6.99;65.17;95264.59;4947306;28;20750;-86
2021/11/17 11:57:53;;;;;;;15.60;10.88;;;7.70;79.60;;;6.99;65.34;95255.97;4957763;28;20202;-87
2021/11/17 12:00:36;;;;;;;13.48;9.70;;;7.70;79.50;;;7.04;65.21;95259.75;4943458;28;20317;-87
2021/11/17 12:03:13;;;;;;;15.02;9.60;;;7.70;79.50;;;7.05;65.26;95247.50;4963257;28;20289;-87
2021/11/17 12:05:44;;;;;;;14.57;9.45;;;7.80;79.40;;;7.11;65.33;95259.09;4927018;28;20209;-86
2021/11/17 12:08:22;;;;;;;12.35;8.85;;;7.70;79.40;;;7.15;65.54;95255.19;4939856;28;20689;-86
2021/11/17 12:11:00;;;;;;;11.23;8.50;;;7.80;79.50;;;7.19;65.25;95253.91;4959083;28;20206;-86
2021/11/17 12:13:32;;;;;;;12.63;9.05;;;7.80;79.60;;;7.24;65.15;95254.22;4958428;28;20227;-86
2021/11/17 12:16:16;;;;;;;13.63;9.23;;;7.90;79.70;;;7.21;65.16;95247.53;4941479;28;20291;-86
2021/11/17 12:18:48;;;;;;;13.05;9.25;;;7.90;79.40;;;7.29;65.19;95253.72;4941832;28;20233;-87
2021/11/17 12:21:25;;;;;;;12.82;9.05;;;7.90;79.50;;;7.32;65.13;95256.00;4972616;28;20711;-86
2021/11/17 12:24:16;;;;;;;11.60;8.52;;;7.90;79.40;;;7.35;65.07;95246.06;4959055;28;20222;-88
2021/11/17 12:27:05;;;;;;;10.88;8.27;;;8.00;79.50;;;7.33;65.21;95234.97;4943291;28;20207;-85
2021/11/17 12:30:05;;;;;;;14.07;9.43;;;8.00;80.30;;;7.44;65.10;95246.06;4970430;28;20242;-87
2021/11/17 12:32:40;;;;;;;13.45;9.35;;;8.00;79.40;;;7.40;64.81;95232.53;4958170;28;20262;-86
2021/11/17 12:35:37;;;;;;;12.95;9.52;;;8.10;79.50;;;7.39;64.95;95227.47;4942058;28;20221;-86
2021/11/17 12:38:11;;;;;;;12.32;8.73;;;8.20;79.20;;;7.36;64.69;95223.38;4939984;28;20188;-85
2021/11/17 12:40:55;;;;;;;11.82;9.15;;;8.10;79.20;;;7.33;64.75;95232.34;4958755;28;20198;-86
2021/11/17 12:44:01;;;;;;;12.13;8.90;;;8.10;79.80;;;7.33;65.06;95234.16;4942906;28;20321;-86
2021/11/17 12:46:45;;;;;;;10.55;7.80;;;8.10;79.00;;;7.32;64.95;95233.34;4928480;28;20195;-86
2021/11/17 12:49:20;;;;;;;11.77;8.48;;;8.10;79.10;;;7.33;64.88;95234.97;4957059;28;20240;-86
2021/11/17 12:52:11;;;;;;;14.05;9.38;;;8.00;79.10;;;7.27;64.56;95233.00;4957525;28;20182;-86
2021/11/17 12:54:50;;;;;;;13.20;8.77;;;8.10;79.00;;;7.29;64.76;95235.47;4950901;28;20226;-87
2021/11/17 12:57:42;;;;;;;11.07;8.18;;;8.20;79.00;;;7.26;65.01;95231.38;4957178;28;20281;-87
2021/11/17 13:00:12;;;;;;;9.73;7.75;;;8.00;78.90;;;7.30;64.86;95234.47;4973736;28;20229;-87
2021/11/17 13:02:57;;;;;;;12.15;7.80;;;8.00;78.90;;;7.28;64.63;95241.66;4957285;28;20254;-88
2021/11/17 13:05:43;;;;;;;10.63;7.53;;;8.00;78.90;;;7.26;64.93;95241.00;4942427;28;20222;-87
2021/11/17 13:08:15;;;;;;;10.85;7.60;;;8.00;78.90;;;7.27;64.91;95245.25;4955946;28;20193;-87
2021/11/17 13:10:50;;;;;;;9.80;6.97;;;8.00;79.00;;;7.28;64.92;95252.09;4942992;28;20183;-86
2021/11/17 13:13:21;;;;;;;10.05;6.95;;;8.00;79.10;;;7.28;64.77;95254.72;4941795;28;20262;-87
2021/11/17 13:15:48;;;;;;;9.80;7.28;;;8.00;78.90;;;7.27;64.59;95250.47;4926290;28;20203;-87
2021/11/17 13:18:27;;;;;;;9.23;6.97;;;8.00;79.00;;;7.25;64.65;95247.19;4965638;28;20190;-87
2021/11/17 13:21:44;;;;;;;11.57;7.55;;;8.00;78.90;;;7.24;64.69;95254.22;4961177;28;20661;-86
2021/11/17 13:24:33;;;;;;;10.07;7.35;;;8.00;78.90;;;7.21;64.76;95244.91;4972260;28;20221;-85
2021/11/17 13:27:07;;;;;;;9.65;6.80;;;8.00;78.90;;;7.22;64.85;95251.75;4946238;28;20215;-86
2021/11/17 13:30:05;;;;;;;10.18;7.07;;;8.00;79.00;;;7.24;64.83;95250.78;4974926;28;20218;-86
2021/11/17 13:32:37;;;;;;;10.38;7.32;;;8.00;79.00;;;7.17;64.55;95241.00;4957774;28;20199;-86
2021/11/17 13:35:29;;;;;;;10.32;7.30;;;8.00;78.70;;;7.13;64.48;95252.75;4942161;28;20246;-87
2021/11/17 13:38:23;;;;;;;9.65;6.53;;;7.90;78.60;;;7.11;64.61;95256.50;4957923;28;20203;-87
2021/11/17 13:41:02;;;;;;;9.38;6.68;;;7.90;78.60;;;7.07;64.50;95257.78;4941577;28;20238;-87
2021/11/17 13:43:31;;;;;;;9.48;6.75;;;7.90;78.60;;;7.07;64.46;95260.38;4942196;28;20751;-87
2021/11/17 13:46:06;;;;;;;8.63;6.50;;;7.90;78.70;;;7.08;64.56;95260.25;4958326;28;20202;-87
2021/11/17 13:48:38;;;;;;;9.13;6.50;;;7.90;78.70;;;7.08;64.76;95270.66;4941147;28;20269;-87
2021/11/17 13:51:06;;;;;;;8.80;6.45;;;7.80;78.70;;;7.05;64.87;95266.59;4941541;28;20214;-87
2021/11/17 13:53:34;;;;;;;8.18;5.97;;;7.80;78.70;;;7.13;64.77;95270.16;4941586;28;20309;-87
2021/11/17 13:56:38;;;;;;;9.13;6.65;;;7.90;78.90;;;7.11;64.46;95266.91;4925016;28;20206;-87